Bergara, Spain
Current Conditions -  °F | °C
As of 5:30 PM on Wednesday 26 Nov 2014 (Local Time) from LEVT Reporting Station
Scattered Clouds Scattered Clouds  
Wind Chill: 50°   Ceiling: Unl
Heat Index: 50°   Visibility: 6mi
Dew Point: 48°   Wind: 2mph
Humidity: 94%   Direction: 30°NNE
Pressure: 29.85"   Gusts: NA
Location:  43.12°N, 2.42°W
Report Text: LEVT 261630Z 03002KT 9999 FEW015 SCT045 10/09 Q1011
Loading
Personal Weather Stations






























Interactive Weather Map New forecast layout! Learn more

10-Day Weather Forecast

Advertisements
Track Severe Weather on mobile